• Join FlightAware (Why Join?)
  • Login
  • US Flag 
10:51PM EDT


 

Airport Tracker/Info


-or-


 

Live Flight TrackerFlight Track Log ✈ N32PA ✈ 14-Aug-2013 ✈ KEVV - KVPC

Flight Track Log - Related Links

Times and Time Zones

All times are in EDT time to prevent confusion due to time zone crossing. See the N32PA flight status page for this flight to view local times or setup timezone preferences in your user account.

Time Position Orientation Groundspeed Altitude Reporting Facility
EDT Latitude Longitude Course Direction KTS MPH feet Rate Location/Type
05:45PM 38.0781 -87.4886 115° Southeast 212 244 3,000  Level Indianapolis Center
05:46PM 38.0539 -87.4225 115° Southeast 303 349 6,700 3,240 Climbing Indianapolis Center
05:47PM 37.9889 -87.3603 143° Southeast 293 337 9,700 2,880 Climbing Indianapolis Center
05:48PM 37.8986 -87.2794 145° Southeast 331 381 12,700 2,760 Climbing Indianapolis Center
05:49PM 37.8153 -87.2028 144° Southeast 363 418 15,500 2,640 Climbing Indianapolis Center
05:50PM 37.7325 -87.1250 143° Southeast 370 426 18,200 2,280 Climbing Indianapolis Center
05:51PM 37.6461 -87.0494 145° Southeast 376 433 20,300 1,980 Climbing Indianapolis Center
05:52PM 37.5547 -86.9697 145° Southeast 393 452 22,400 1,980 Climbing Indianapolis Center
05:53PM 37.4533 -86.8850 146° Southeast 402 463 24,500 1,800 Climbing Indianapolis Center
05:54PM 37.3539 -86.8017 146° Southeast 420 483 26,200 1,680 Climbing Indianapolis Center
05:55PM 37.2544 -86.7178 146° Southeast 425 489 28,000 1,500 Climbing Indianapolis Center
05:56PM 37.1536 -86.6339 146° Southeast 428 493 29,400 1,380 Climbing Indianapolis Center
05:57PM 37.0825 -86.5736 146° Southeast 432 497 30,400 1,320 Climbing Memphis Center
05:58PM 36.9778 -86.4875 147° Southeast 439 505 31,700 1,080 Climbing Memphis Center
05:59PM 36.8728 -86.3994 146° Southeast 449 517 32,600 660 Climbing Memphis Center
06:00PM 36.7619 -86.3194 150° Southeast 454 522 33,100 600 Climbing Memphis Center
06:01PM 36.6489 -86.2447 152° Southeast 461 531 33,900 420 Climbing Memphis Center
06:02PM 36.5253 -86.1583 151° Southeast 467 537 34,000  Climbing Memphis Center
06:03PM 36.4103 -86.0867 153° Southeast 467 537 34,000  Level Memphis Center
06:03PM 36.3581 -86.0561 155° Southeast 463 533 34,000  Level Indianapolis Center
06:06PM 36.1047 -85.8942 153° Southeast 448 516 34,000 -240 Level Atlanta Center
06:07PM 35.9953 -85.8275 154° Southeast 437 503 33,400 -540 Descending Atlanta Center
06:08PM 35.8836 -85.7558 153° Southeast 443 510 33,000 -240 Descending Atlanta Center
06:09PM 35.7739 -85.6869 153° Southeast 443 510 33,000  Level Atlanta Center
06:10PM 35.6644 -85.6183 153° Southeast 443 510 33,000  Level Atlanta Center
06:11PM 35.5547 -85.5500 153° Southeast 443 510 33,000 -780 Level Atlanta Center
06:12PM 35.4450 -85.4767 151° Southeast 443 510 31,500 -1,800 Descending Atlanta Center
06:13PM 35.3394 -85.3856 145° Southeast 448 516 29,400 -1,740 Descending Atlanta Center
06:14PM 35.2594 -85.2622 128° Southeast 455 524 28,100 -1,860 Descending Atlanta Center
06:15PM 35.1731 -85.1467 132° Southeast 455 524 25,700 -1,860 Descending Atlanta Center
06:16PM 35.0586 -85.0944 160° South 444 511 24,400 -1,500 Descending Atlanta Center
06:17PM 34.9483 -85.0625 167° South 424 488 22,700 -2,460 Descending Atlanta Center
06:18PM 34.8358 -85.0358 169° South 409 471 19,500 600 Descending Atlanta Center
06:19PM 34.7358 -85.0194 172° South 396 456 24,000 -3,600 Climbing Atlanta Center
06:20PM 34.6461 -84.9983 169° South 361 415 12,300 -6,540 Descending Atlanta Center
06:21PM 34.5503 -84.9869 174° South 328 377 11,000 -960 Descending Atlanta Center
06:22PM 34.4711 -84.9636 166° South 303 349 10,400 -1,800 Descending Atlanta Center
06:23PM 34.3919 -84.9400 166° South 291 335 7,400 -3,000 Descending Atlanta Center
06:25PM 34.2060 -84.8520 165° South  Level FlightAware Approximate
06:32PM 34.1231 -84.8487 165° South  Level Estimated
06:33PM 34.1231 -84.8487 165° South  Level Estimated
06:34PM 34.1231 -84.8487 165° South  Level Estimated
06:35PM 34.1231 -84.8487 165° South  Level Estimated
06:36PM 34.1231 -84.8487 165° South  Level Estimated
06:37PM 34.1231 -84.8487 165° South  Level Estimated
06:38PM 34.1231 -84.8487 165° South  Level Estimated
06:39PM 34.1231 -84.8487 165° South  Level Estimated
06:40PM 34.1231 -84.8487 165° South  Level Estimated
06:41PM 34.1231 -84.8487 165° South  Level Estimated
06:42PM 34.1231 -84.8487 165° South  Level Estimated
06:43PM 34.1231 -84.8487 165° South  Level Estimated
06:44PM 34.1231 -84.8487 165° South  Level Estimated
06:45PM 34.1231 -84.8487 165° South  Level Estimated